createdAt,value
2023-04-26T00:02:06.967Z,13.75
2023-04-26T00:04:31.791Z,14.30
2023-04-26T00:06:57.956Z,13.57
2023-04-26T00:09:23.001Z,14.00
2023-04-26T00:11:47.713Z,13.95
2023-04-26T00:14:13.984Z,14.48
2023-04-26T00:16:38.785Z,14.30
2023-04-26T00:19:03.975Z,14.07
2023-04-26T00:21:28.664Z,13.98
2023-04-26T00:23:53.312Z,14.75
2023-04-26T00:26:17.968Z,15.45
2023-04-26T00:28:42.624Z,15.65
2023-04-26T00:31:15.109Z,14.85
2023-04-26T00:33:39.869Z,15.30
2023-04-26T00:36:04.567Z,14.85
2023-04-26T00:38:30.282Z,15.48
2023-04-26T00:40:55.187Z,15.10
2023-04-26T00:43:21.002Z,16.02
2023-04-26T00:45:45.713Z,13.73
2023-04-26T00:48:12.281Z,15.68
2023-04-26T00:50:38.811Z,14.55
2023-04-26T00:53:05.030Z,15.20
2023-04-26T00:55:29.885Z,15.48
2023-04-26T00:57:55.502Z,14.02
2023-04-26T01:00:21.622Z,14.38
2023-04-26T01:02:46.346Z,14.90
2023-04-26T01:05:12.831Z,16.10
2023-04-26T01:07:38.717Z,14.98
2023-04-26T01:10:05.359Z,15.55
2023-04-26T01:12:31.317Z,15.65
2023-04-26T01:14:56.897Z,14.88
2023-04-26T01:17:21.476Z,15.75
2023-04-26T01:19:50.533Z,15.98
2023-04-26T01:22:20.010Z,15.32
2023-04-26T01:24:50.311Z,15.15
2023-04-26T01:27:16.850Z,15.38
2023-04-26T01:29:41.715Z,14.98
2023-04-26T01:32:06.744Z,15.30
2023-04-26T01:34:33.364Z,14.07
2023-04-26T01:36:58.554Z,15.80
2023-04-26T01:39:26.459Z,15.73
2023-04-26T01:41:52.624Z,14.60
2023-04-26T01:44:17.833Z,15.15
2023-04-26T01:46:42.704Z,14.80
2023-04-26T01:49:11.034Z,15.43
2023-04-26T01:51:36.369Z,15.20
2023-04-26T01:54:02.089Z,14.77
2023-04-26T01:56:26.983Z,14.35
2023-04-26T01:58:53.341Z,13.95
2023-04-26T02:01:20.439Z,13.40
2023-04-26T02:03:45.229Z,14.18
2023-04-26T02:06:10.006Z,14.40
2023-04-26T02:08:37.102Z,14.35
2023-04-26T02:11:01.664Z,13.80
2023-04-26T02:13:26.318Z,13.38
2023-04-26T02:15:52.576Z,14.70
2023-04-26T02:18:17.764Z,13.48
2023-04-26T02:20:43.434Z,13.95
2023-04-26T02:23:07.960Z,13.57
2023-04-26T02:25:32.619Z,13.82
2023-04-26T02:27:57.179Z,13.48
2023-04-26T02:30:23.859Z,14.20
2023-04-26T02:32:50.193Z,14.38
2023-04-26T02:35:16.144Z,13.85
2023-04-26T02:37:40.834Z,15.05
2023-04-26T02:40:06.037Z,14.38
2023-04-26T02:42:30.617Z,13.98
2023-04-26T02:44:55.360Z,14.38
2023-04-26T02:47:20.897Z,13.73
2023-04-26T02:49:47.850Z,13.88
2023-04-26T02:52:12.839Z,13.68
2023-04-26T02:54:38.614Z,13.90
2023-04-26T02:57:35.044Z,14.50
2023-04-26T03:00:00.424Z,13.88
2023-04-26T03:02:29.587Z,15.02
2023-04-26T03:04:59.744Z,15.98
2023-04-26T03:07:25.164Z,15.00
2023-04-26T03:09:49.969Z,14.55
2023-04-26T03:12:15.665Z,14.75
2023-04-26T03:14:40.670Z,15.70
2023-04-26T03:17:08.831Z,14.35
2023-04-26T03:19:36.551Z,14.75
2023-04-26T03:22:04.430Z,15.25
2023-04-26T03:24:29.076Z,16.02
2023-04-26T03:26:53.856Z,16.80
2023-04-26T03:29:19.093Z,16.15
2023-04-26T03:31:43.864Z,15.02
2023-04-26T03:34:09.279Z,14.57
2023-04-26T03:36:34.696Z,15.43
2023-04-26T03:39:02.150Z,14.23
2023-04-26T03:41:27.238Z,13.10
2023-04-26T03:43:53.599Z,13.13
2023-04-26T03:46:18.285Z,12.00
2023-04-26T03:48:44.246Z,12.00
2023-04-26T03:51:12.061Z,11.38
2023-04-26T03:53:36.887Z,11.75
2023-04-26T03:56:03.040Z,12.40
2023-04-26T03:58:30.174Z,12.15
2023-04-26T04:00:57.705Z,10.65
2023-04-26T04:03:22.746Z,12.15
2023-04-26T04:05:47.752Z,11.77
2023-04-26T04:08:12.323Z,12.15
2023-04-26T04:10:38.220Z,11.38
2023-04-26T04:13:04.199Z,11.05
2023-04-26T04:15:29.055Z,11.15
2023-04-26T04:17:53.750Z,11.25
2023-04-26T04:20:18.967Z,11.73
2023-04-26T04:22:44.202Z,12.70
2023-04-26T04:25:10.516Z,11.48
2023-04-26T04:27:35.260Z,12.32
2023-04-26T04:30:03.725Z,11.85
2023-04-26T04:32:29.367Z,11.32
2023-04-26T04:35:18.508Z,11.52
2023-04-26T04:37:56.660Z,11.52
2023-04-26T04:40:21.454Z,11.40
2023-04-26T04:42:47.170Z,12.13
2023-04-26T04:45:14.912Z,11.95
2023-04-26T04:47:40.362Z,12.20
2023-04-26T04:50:06.222Z,12.27
2023-04-26T04:52:32.819Z,11.25
2023-04-26T04:54:57.492Z,12.07
2023-04-26T04:57:22.217Z,11.85
2023-04-26T04:59:46.898Z,12.25
2023-04-26T05:02:13.194Z,12.60
2023-04-26T05:04:39.027Z,11.55
2023-04-26T05:07:03.847Z,11.60
2023-04-26T05:09:28.483Z,12.25
2023-04-26T05:11:52.971Z,11.43
2023-04-26T05:14:18.115Z,11.60
2023-04-26T05:16:43.194Z,11.38
2023-04-26T05:19:09.784Z,10.75
2023-04-26T05:21:34.907Z,10.80
2023-04-26T05:23:59.565Z,11.50
2023-04-26T05:26:24.241Z,12.25
2023-04-26T05:28:54.916Z,10.77
2023-04-26T05:31:24.606Z,10.73
2023-04-26T05:34:16.583Z,7.60
2023-04-26T05:36:46.117Z,9.50
2023-04-26T05:39:12.535Z,6.25
2023-04-26T05:41:37.362Z,6.78
2023-04-26T05:44:02.109Z,7.15
2023-04-26T05:46:28.017Z,9.48
2023-04-26T05:48:53.390Z,7.72
2023-04-26T05:51:19.339Z,8.13
2023-04-26T05:53:44.782Z,9.40
2023-04-26T05:56:09.730Z,6.97
2023-04-26T05:58:34.716Z,8.32
2023-04-26T06:01:01.188Z,8.45
2023-04-26T06:03:26.108Z,7.55
2023-04-26T06:05:51.981Z,9.13
2023-04-26T06:08:20.320Z,10.23
2023-04-26T06:10:47.774Z,9.07
2023-04-26T06:13:12.384Z,9.00
2023-04-26T06:15:36.997Z,10.23
2023-04-26T06:18:01.594Z,8.45
2023-04-26T06:20:26.856Z,9.23
2023-04-26T06:22:52.014Z,9.88
2023-04-26T06:25:18.425Z,8.77
2023-04-26T06:27:46.072Z,8.35
2023-04-26T06:30:12.317Z,9.45
2023-04-26T06:32:43.008Z,10.18
2023-04-26T06:35:08.387Z,10.02
2023-04-26T06:37:32.938Z,9.05
2023-04-26T06:39:58.938Z,8.20
2023-04-26T06:42:25.235Z,7.90
2023-04-26T06:45:14.168Z,7.40
2023-04-26T06:47:39.060Z,7.95
2023-04-26T06:50:08.259Z,7.68
2023-04-26T06:52:33.020Z,8.65
2023-04-26T06:54:57.972Z,9.52
2023-04-26T06:57:24.153Z,10.52
2023-04-26T06:59:49.148Z,11.00
2023-04-26T07:02:15.630Z,11.00
2023-04-26T07:04:41.203Z,12.10
2023-04-26T07:07:05.994Z,13.63
2023-04-26T07:09:30.781Z,14.55
2023-04-26T07:11:55.359Z,16.15
2023-04-26T07:14:21.572Z,18.58
2023-04-26T07:16:46.519Z,17.92
2023-04-26T07:19:11.361Z,16.17
2023-04-26T07:21:36.105Z,15.68
2023-04-26T07:24:00.723Z,21.90
2023-04-26T07:26:26.728Z,21.33
2023-04-26T07:28:52.944Z,19.95
2023-04-26T07:31:18.882Z,12.32
2023-04-26T07:33:43.768Z,26.88
2023-04-26T07:36:08.932Z,25.10
2023-04-26T07:38:33.735Z,21.13
2023-04-26T07:40:58.814Z,21.02
2023-04-26T07:43:24.885Z,20.17
2023-04-26T07:45:49.402Z,18.80
2023-04-26T07:48:15.515Z,15.68
2023-04-26T07:50:40.355Z,13.73
2023-04-26T07:53:04.942Z,13.00
2023-04-26T07:55:29.795Z,12.25
2023-04-26T07:57:54.404Z,9.50
2023-04-26T08:00:20.192Z,9.48
2023-04-26T08:02:46.708Z,8.88
2023-04-26T08:05:14.015Z,10.20
2023-04-26T08:07:38.965Z,9.95
2023-04-26T08:10:04.139Z,8.73
2023-04-26T08:12:29.194Z,8.05
2023-04-26T08:14:54.180Z,7.57
2023-04-26T08:17:18.648Z,7.32
2023-04-26T08:19:43.122Z,6.93
2023-04-26T08:22:09.037Z,6.95
2023-04-26T08:24:33.500Z,6.72
2023-04-26T08:26:59.098Z,5.97
2023-04-26T08:29:25.605Z,6.07
2023-04-26T08:31:51.619Z,6.10
2023-04-26T08:34:16.181Z,4.72
2023-04-26T08:36:41.630Z,5.20
2023-04-26T08:39:07.565Z,5.60
2023-04-26T08:41:37.701Z,5.10
2023-04-26T08:44:05.722Z,4.32
2023-04-26T08:46:32.969Z,4.65
2023-04-26T08:49:07.424Z,4.18
2023-04-26T08:51:33.428Z,4.25
2023-04-26T08:53:59.367Z,3.92
2023-04-26T08:56:27.662Z,3.55
2023-04-26T08:58:52.810Z,3.95
2023-04-26T09:01:18.577Z,4.25
2023-04-26T09:03:43.536Z,4.50
2023-04-26T09:06:08.921Z,5.15
2023-04-26T09:08:37.812Z,4.15
2023-04-26T09:11:04.353Z,3.80
2023-04-26T09:13:34.295Z,4.18
2023-04-26T09:15:59.110Z,3.95
2023-04-26T09:18:25.040Z,3.40
2023-04-26T09:21:05.853Z,3.65
2023-04-26T09:23:30.801Z,3.00
2023-04-26T09:25:55.312Z,3.50
2023-04-26T09:28:24.407Z,3.10
2023-04-26T09:30:50.670Z,3.10
2023-04-26T09:33:15.453Z,2.58
2023-04-26T09:35:41.496Z,2.72
2023-04-26T09:38:12.284Z,3.33
2023-04-26T09:40:41.141Z,2.92
2023-04-26T09:43:07.751Z,3.25
2023-04-26T09:45:34.387Z,2.95
2023-04-26T09:50:32.793Z,2.75
2023-04-26T09:52:58.328Z,2.78
2023-04-26T09:55:34.814Z,2.70
2023-04-26T09:58:00.706Z,3.17
2023-04-26T10:00:26.774Z,3.50
2023-04-26T10:02:53.593Z,3.47
2023-04-26T10:05:18.679Z,3.47
2023-04-26T10:07:46.758Z,3.17
2023-04-26T10:10:13.278Z,3.58
2023-04-26T10:12:38.711Z,3.08
2023-04-26T10:15:05.540Z,2.40
2023-04-26T10:17:30.513Z,2.65
2023-04-26T10:20:00.064Z,2.35
2023-04-26T10:22:28.401Z,2.50
2023-04-26T10:24:55.961Z,2.47
2023-04-26T10:27:48.980Z,2.60
2023-04-26T10:30:14.434Z,2.50
2023-04-26T10:33:17.677Z,2.83
2023-04-26T10:36:03.134Z,3.00
2023-04-26T10:38:27.796Z,3.15
2023-04-26T10:40:55.224Z,4.00
2023-04-26T10:43:29.881Z,3.10
2023-04-26T10:45:56.956Z,2.95
2023-04-26T10:48:24.328Z,2.47
2023-04-26T10:51:12.608Z,2.45
2023-04-26T10:53:59.897Z,2.83
2023-04-26T10:56:55.616Z,2.55
2023-04-26T10:59:39.884Z,3.38
2023-04-26T11:02:10.880Z,2.60
2023-04-26T11:04:53.510Z,3.15
2023-04-26T11:07:37.074Z,3.70
2023-04-26T11:10:02.210Z,3.40
2023-04-26T11:12:32.145Z,3.88
2023-04-26T11:14:56.861Z,3.13
2023-04-26T11:17:22.542Z,2.38
2023-04-26T11:19:48.169Z,2.97
2023-04-26T11:22:14.358Z,3.17
2023-04-26T11:24:39.083Z,3.40
2023-04-26T11:27:09.463Z,2.53
2023-04-26T11:29:35.584Z,2.97
2023-04-26T11:32:00.493Z,3.13
2023-04-26T11:34:32.569Z,3.47
2023-04-26T11:36:57.095Z,2.83
2023-04-26T11:39:22.923Z,3.42
2023-04-26T11:41:47.558Z,3.10
2023-04-26T11:44:13.112Z,3.13
2023-04-26T11:46:39.287Z,2.95
2023-04-26T11:49:04.461Z,3.13
2023-04-26T11:51:30.638Z,3.35
2023-04-26T11:53:56.292Z,3.10
2023-04-26T11:56:23.168Z,3.63
2023-04-26T11:58:48.788Z,2.83
2023-04-26T12:01:13.740Z,3.53
2023-04-26T12:03:39.951Z,3.30
2023-04-26T12:06:06.539Z,3.25
2023-04-26T12:08:33.240Z,3.20
2023-04-26T12:11:02.466Z,2.80
2023-04-26T12:13:27.542Z,3.28
2023-04-26T12:15:52.669Z,2.88
2023-04-26T12:18:17.521Z,2.95
2023-04-26T12:20:46.648Z,5.45
2023-04-26T12:23:14.490Z,2.92
2023-04-26T12:25:40.592Z,3.10
2023-04-26T12:28:08.474Z,2.70
2023-04-26T12:30:33.341Z,3.65
2023-04-26T12:33:12.966Z,2.72
2023-04-26T12:35:41.472Z,3.40
2023-04-26T12:38:07.924Z,2.92
2023-04-26T12:40:32.823Z,2.72
2023-04-26T12:42:58.261Z,1.88
2023-04-26T12:45:23.402Z,1.08
2023-04-26T12:47:48.126Z,1.35
2023-04-26T12:50:14.176Z,1.45
2023-04-26T12:52:39.500Z,1.50
2023-04-26T12:55:06.290Z,1.30
2023-04-26T12:57:30.834Z,2.00
2023-04-26T12:59:56.600Z,2.25
2023-04-26T13:02:22.370Z,1.70
2023-04-26T13:04:47.603Z,1.70
2023-04-26T13:07:12.568Z,2.03
2023-04-26T13:09:37.068Z,2.58
2023-04-26T13:12:03.694Z,2.20
2023-04-26T13:14:28.487Z,2.10
2023-04-26T13:16:54.604Z,2.53
2023-04-26T13:19:19.158Z,1.80
2023-04-26T13:21:43.790Z,2.17
2023-04-26T13:24:08.691Z,2.22
2023-04-26T13:26:33.264Z,2.35
2023-04-26T13:28:59.264Z,1.80
2023-04-26T13:31:23.804Z,1.92
2023-04-26T13:33:49.292Z,1.60
2023-04-26T13:36:15.392Z,1.55
2023-04-26T13:38:39.781Z,2.00
2023-04-26T13:41:04.496Z,2.08
2023-04-26T13:43:29.143Z,1.75
2023-04-26T13:45:55.076Z,1.67
2023-04-26T13:48:19.613Z,1.80
2023-04-26T13:50:44.163Z,1.77
2023-04-26T13:53:09.040Z,2.13
2023-04-26T13:55:33.602Z,1.80
2023-04-26T13:57:58.663Z,1.77
2023-04-26T14:00:28.175Z,1.90
2023-04-26T14:02:54.350Z,2.10
2023-04-26T14:05:19.123Z,1.95
2023-04-26T14:07:43.974Z,1.90
2023-04-26T14:10:09.584Z,1.60
2023-04-26T14:12:34.106Z,2.50
2023-04-26T14:14:58.788Z,3.42
2023-04-26T14:17:23.187Z,2.95
2023-04-26T14:19:49.097Z,3.25
2023-04-26T14:22:14.735Z,5.18
2023-04-26T14:24:40.826Z,4.70
2023-04-26T14:27:08.183Z,2.45
2023-04-26T14:29:32.716Z,4.57
2023-04-26T14:31:57.488Z,7.45
2023-04-26T14:34:23.740Z,5.85
2023-04-26T14:36:49.631Z,2.38
2023-04-26T14:39:14.403Z,5.47
2023-04-26T14:41:38.926Z,5.57
2023-04-26T14:44:03.783Z,4.22
2023-04-26T14:46:28.413Z,9.43
2023-04-26T14:48:53.060Z,4.22
2023-04-26T14:51:17.991Z,2.50
2023-04-26T14:53:44.204Z,1.67
2023-04-26T14:56:09.764Z,3.10
2023-04-26T14:58:34.461Z,2.92
2023-04-26T15:00:59.161Z,2.70
2023-04-26T15:03:23.890Z,3.33
2023-04-26T15:05:48.734Z,2.22
2023-04-26T15:08:13.707Z,3.97
2023-04-26T15:10:39.651Z,10.30
2023-04-26T15:13:04.416Z,5.85
2023-04-26T15:15:29.039Z,4.55
2023-04-26T15:17:53.760Z,8.73
2023-04-26T15:20:18.593Z,6.22
2023-04-26T15:22:43.583Z,11.70
2023-04-26T15:25:09.513Z,4.68
2023-04-26T15:27:38.031Z,2.03
2023-04-26T15:30:03.755Z,2.40
2023-04-26T15:32:31.625Z,2.85
2023-04-26T15:34:56.676Z,3.42
2023-04-26T15:37:21.430Z,3.10
2023-04-26T15:39:46.065Z,1.80
2023-04-26T15:42:11.321Z,1.75
2023-04-26T15:44:37.630Z,1.17
2023-04-26T15:47:02.704Z,1.40
2023-04-26T15:49:27.634Z,1.98
2023-04-26T15:51:52.292Z,1.70
2023-04-26T15:54:16.827Z,2.55
2023-04-26T15:56:41.449Z,2.30
2023-04-26T15:59:06.004Z,3.38
2023-04-26T16:01:32.075Z,2.65
2023-04-26T16:03:56.837Z,3.20
2023-04-26T16:06:21.760Z,2.75
2023-04-26T16:08:46.470Z,3.10
2023-04-26T16:11:11.316Z,3.05
2023-04-26T16:13:35.969Z,3.20
2023-04-26T16:16:01.600Z,3.20
2023-04-26T16:18:27.746Z,3.42
2023-04-26T16:20:52.437Z,3.22
2023-04-26T16:23:17.887Z,2.55
2023-04-26T16:25:42.894Z,2.72
2023-04-26T16:28:10.041Z,2.63
2023-04-26T16:30:36.085Z,3.40
2023-04-26T16:33:04.736Z,2.85
2023-04-26T16:35:31.324Z,3.40
2023-04-26T16:37:56.230Z,3.30
2023-04-26T16:40:21.795Z,2.45
2023-04-26T16:42:46.432Z,3.70
2023-04-26T16:45:13.920Z,3.80
2023-04-26T16:47:41.241Z,2.80
2023-04-26T16:50:07.346Z,2.53
2023-04-26T16:52:36.324Z,2.70
2023-04-26T16:55:02.117Z,2.72
2023-04-26T16:57:29.424Z,2.25
2023-04-26T16:59:54.308Z,2.95
2023-04-26T17:02:19.331Z,3.55
2023-04-26T17:04:44.416Z,2.42
2023-04-26T17:07:12.977Z,2.45
2023-04-26T17:09:39.456Z,3.10
2023-04-26T17:12:04.354Z,2.83
2023-04-26T17:14:29.028Z,3.28
2023-04-26T17:16:54.169Z,2.75
2023-04-26T17:19:20.648Z,2.83
2023-04-26T17:21:47.541Z,2.45
2023-04-26T17:24:12.522Z,2.90
2023-04-26T17:26:38.632Z,2.75
2023-04-26T17:29:03.413Z,2.92
2023-04-26T17:31:28.638Z,3.05
2023-04-26T17:33:53.916Z,3.03
2023-04-26T17:36:19.543Z,3.13
2023-04-26T17:38:44.842Z,2.85
2023-04-26T17:41:09.784Z,2.60
2023-04-26T17:43:35.900Z,2.60
2023-04-26T17:46:01.324Z,4.25
2023-04-26T17:48:26.168Z,2.40
2023-04-26T17:50:52.952Z,3.05
2023-04-26T17:53:17.866Z,2.72
2023-04-26T17:55:45.062Z,2.47
2023-04-26T17:58:10.430Z,2.63
2023-04-26T18:00:36.746Z,2.53
2023-04-26T18:03:03.262Z,2.28
2023-04-26T18:05:28.645Z,3.40
2023-04-26T18:07:55.343Z,2.45
2023-04-26T18:10:20.375Z,2.53
2023-04-26T18:12:45.525Z,2.22
2023-04-26T18:15:10.766Z,2.25
2023-04-26T18:17:39.392Z,2.63
2023-04-26T18:20:06.829Z,2.10
2023-04-26T18:22:31.767Z,1.95
2023-04-26T18:24:56.503Z,2.65
2023-04-26T18:27:21.389Z,2.05
2023-04-26T18:29:46.422Z,1.98
2023-04-26T18:32:11.334Z,2.30
2023-04-26T18:34:38.141Z,2.33
2023-04-26T18:37:03.672Z,2.00
2023-04-26T18:39:30.517Z,1.92
2023-04-26T18:42:21.747Z,1.70
2023-04-26T18:45:14.109Z,1.85
2023-04-26T18:55:44.092Z,1.58
2023-04-26T18:58:10.635Z,1.60
2023-04-26T19:00:35.682Z,2.00
2023-04-26T19:03:01.430Z,2.25
2023-04-26T19:05:27.437Z,1.90
2023-04-26T19:07:55.630Z,2.97
2023-04-26T19:10:21.890Z,2.25
2023-04-26T19:12:50.875Z,2.30
2023-04-26T19:15:17.659Z,2.72
2023-04-26T19:17:42.803Z,2.75
2023-04-26T19:20:13.201Z,2.85
2023-04-26T19:22:37.999Z,2.15
2023-04-26T19:25:02.745Z,2.58
2023-04-26T19:27:31.285Z,2.50
2023-04-26T19:29:58.870Z,2.00
2023-04-26T19:32:24.069Z,1.95
2023-04-26T19:34:49.055Z,2.53
2023-04-26T19:37:13.714Z,2.40
2023-04-26T19:39:40.100Z,1.90
2023-04-26T19:42:08.139Z,2.28
2023-04-26T19:44:33.521Z,2.72
2023-04-26T19:47:04.664Z,2.83
2023-04-26T19:49:29.730Z,1.70
2023-04-26T19:51:57.678Z,2.35
2023-04-26T19:54:22.634Z,2.72
2023-04-26T19:56:47.423Z,2.08
2023-04-26T19:59:13.572Z,2.20
2023-04-26T20:01:39.991Z,1.92
2023-04-26T20:04:06.287Z,1.95
2023-04-26T20:06:31.391Z,1.60
2023-04-26T20:08:56.192Z,1.58
2023-04-26T20:11:21.224Z,1.90
2023-04-26T20:13:46.602Z,1.95
2023-04-26T20:16:11.771Z,1.73
2023-04-26T20:18:37.368Z,2.17
2023-04-26T20:21:03.581Z,2.10
2023-04-26T20:23:52.581Z,2.15
2023-04-26T20:26:17.226Z,2.75
2023-04-26T20:28:42.889Z,2.97
2023-04-26T20:31:10.048Z,2.47
2023-04-26T20:33:34.603Z,2.30
2023-04-26T20:35:59.377Z,2.42
2023-04-26T20:38:25.706Z,2.58
2023-04-26T20:40:50.511Z,2.75
2023-04-26T20:43:15.377Z,2.22
2023-04-26T20:45:42.413Z,2.67
2023-04-26T20:48:07.995Z,2.50
2023-04-26T20:50:33.826Z,2.65
2023-04-26T20:52:59.699Z,2.80
2023-04-26T20:55:26.198Z,2.70
2023-04-26T20:57:50.818Z,2.67
2023-04-26T21:00:16.384Z,2.58
2023-04-26T21:02:41.946Z,2.30
2023-04-26T21:05:07.569Z,2.47
2023-04-26T21:07:32.456Z,2.70
2023-04-26T21:09:57.284Z,2.47
2023-04-26T21:12:23.415Z,2.67
2023-04-26T21:14:48.074Z,2.47
2023-04-26T21:17:12.604Z,2.40
2023-04-26T21:19:37.153Z,2.75
2023-04-26T21:22:04.406Z,3.00
2023-04-26T21:24:29.082Z,3.20
2023-04-26T21:26:53.639Z,3.47
2023-04-26T21:29:21.436Z,3.50
2023-04-26T21:31:47.094Z,3.28
2023-04-26T21:34:12.062Z,3.20
2023-04-26T21:36:37.340Z,3.50
2023-04-26T21:39:02.596Z,3.83
2023-04-26T21:41:27.305Z,3.25
2023-04-26T21:43:53.052Z,3.75
2023-04-26T21:46:19.221Z,3.30
2023-04-26T21:48:45.335Z,4.00
2023-04-26T21:51:09.807Z,3.92
2023-04-26T21:53:34.431Z,4.15
2023-04-26T21:55:58.889Z,3.50
2023-04-26T21:58:24.651Z,3.78
2023-04-26T22:00:49.715Z,3.75
2023-04-26T22:03:16.496Z,4.13
2023-04-26T22:05:41.278Z,3.72
2023-04-26T22:08:06.307Z,3.72
2023-04-26T22:10:31.260Z,4.30
2023-04-26T22:12:56.416Z,3.85
2023-04-26T22:15:21.257Z,4.25
2023-04-26T22:17:46.050Z,3.75
2023-04-26T22:20:13.980Z,3.60
2023-04-26T22:22:39.242Z,4.07
2023-04-26T22:25:04.331Z,3.92
2023-04-26T22:27:29.386Z,4.32
2023-04-26T22:29:54.021Z,4.20
2023-04-26T22:32:19.007Z,4.75
2023-04-26T22:34:44.001Z,4.30
2023-04-26T22:37:20.155Z,4.65
2023-04-26T22:39:46.829Z,3.95
2023-04-26T22:42:12.011Z,4.97
2023-04-26T22:44:37.543Z,5.15
2023-04-26T22:47:02.135Z,4.07
2023-04-26T22:49:29.279Z,5.80
2023-04-26T22:52:05.968Z,5.28
2023-04-26T22:54:38.221Z,4.63
2023-04-26T22:57:03.424Z,4.85
2023-04-26T22:59:28.690Z,4.35
2023-04-26T23:01:53.740Z,4.38
2023-04-26T23:04:18.552Z,4.30
2023-04-26T23:06:43.784Z,4.40
2023-04-26T23:09:08.786Z,4.30
2023-04-26T23:11:35.786Z,4.90
2023-04-26T23:14:02.221Z,5.00
2023-04-26T23:16:28.714Z,4.45
2023-04-26T23:18:54.199Z,4.63
2023-04-26T23:21:18.827Z,4.32
2023-04-26T23:23:43.343Z,4.50
2023-04-26T23:26:08.699Z,4.72
2023-04-26T23:28:34.732Z,4.93
2023-04-26T23:30:59.936Z,4.93
2023-04-26T23:33:25.499Z,4.40
2023-04-26T23:35:50.112Z,4.68
2023-04-26T23:38:14.603Z,4.88
2023-04-26T23:40:39.403Z,4.45
2023-04-26T23:43:03.982Z,4.63
2023-04-26T23:45:30.029Z,5.18
2023-04-26T23:47:55.185Z,5.07
2023-04-26T23:50:19.985Z,5.55
2023-04-26T23:52:44.571Z,4.72
2023-04-26T23:55:10.176Z,4.43
2023-04-26T23:57:35.152Z,4.40
